sensor_id;sensor_type;location;lat;lon;timestamp;temperature;humidity
5344;DHT22;2694;48.950;8.970;2023-01-25T00:01:59;1.90;99.90
5344;DHT22;2694;48.950;8.970;2023-01-25T00:04:26;2.10;99.90
5344;DHT22;2694;48.950;8.970;2023-01-25T00:06:53;2.10;99.90
5344;DHT22;2694;48.950;8.970;2023-01-25T00:09:21;2.00;99.90
5344;DHT22;2694;48.950;8.970;2023-01-25T00:11:50;2.10;99.90
5344;DHT22;2694;48.950;8.970;2023-01-25T00:14:17;2.10;99.90
5344;DHT22;2694;48.950;8.970;2023-01-25T00:16:44;2.00;99.90
5344;DHT22;2694;48.950;8.970;2023-01-25T00:19:11;2.00;99.90
5344;DHT22;2694;48.950;8.970;2023-01-25T00:21:38;2.10;99.90
5344;DHT22;2694;48.950;8.970;2023-01-25T00:24:05;2.00;99.90
5344;DHT22;2694;48.950;8.970;2023-01-25T00:26:33;2.00;99.90
5344;DHT22;2694;48.950;8.970;2023-01-25T00:29:02;2.10;99.90
5344;DHT22;2694;48.950;8.970;2023-01-25T00:34:51;2.10;99.90
5344;DHT22;2694;48.950;8.970;2023-01-25T00:37:23;2.10;99.90
5344;DHT22;2694;48.950;8.970;2023-01-25T00:39:50;2.10;99.90
5344;DHT22;2694;48.950;8.970;2023-01-25T00:42:18;2.10;99.90
5344;DHT22;2694;48.950;8.970;2023-01-25T00:44:47;2.10;99.90
5344;DHT22;2694;48.950;8.970;2023-01-25T00:47:14;2.10;99.90
5344;DHT22;2694;48.950;8.970;2023-01-25T00:49:43;2.10;99.90
5344;DHT22;2694;48.950;8.970;2023-01-25T00:52:10;2.10;99.90
5344;DHT22;2694;48.950;8.970;2023-01-25T00:54:37;2.10;99.90
5344;DHT22;2694;48.950;8.970;2023-01-25T00:57:05;2.10;99.90
5344;DHT22;2694;48.950;8.970;2023-01-25T00:59:32;2.10;99.90
5344;DHT22;2694;48.950;8.970;2023-01-25T01:02:00;2.10;99.90
5344;DHT22;2694;48.950;8.970;2023-01-25T01:04:27;2.10;99.90
5344;DHT22;2694;48.950;8.970;2023-01-25T01:06:55;2.10;99.90
5344;DHT22;2694;48.950;8.970;2023-01-25T01:09:23;2.10;99.90
5344;DHT22;2694;48.950;8.970;2023-01-25T01:11:50;2.10;99.90
5344;DHT22;2694;48.950;8.970;2023-01-25T01:14:17;2.10;99.90
5344;DHT22;2694;48.950;8.970;2023-01-25T01:16:44;2.10;99.90
5344;DHT22;2694;48.950;8.970;2023-01-25T01:19:13;2.10;99.90
5344;DHT22;2694;48.950;8.970;2023-01-25T01:21:40;2.10;99.90
5344;DHT22;2694;48.950;8.970;2023-01-25T01:24:08;2.10;99.90
5344;DHT22;2694;48.950;8.970;2023-01-25T01:26:35;2.10;99.90
5344;DHT22;2694;48.950;8.970;2023-01-25T01:29:03;2.00;99.90
5344;DHT22;2694;48.950;8.970;2023-01-25T01:31:30;2.00;99.90
5344;DHT22;2694;48.950;8.970;2023-01-25T01:33:57;2.10;99.90
5344;DHT22;2694;48.950;8.970;2023-01-25T01:36:27;2.00;99.90
5344;DHT22;2694;48.950;8.970;2023-01-25T01:38:54;1.90;99.90
5344;DHT22;2694;48.950;8.970;2023-01-25T01:41:21;2.00;99.90
5344;DHT22;2694;48.950;8.970;2023-01-25T01:43:49;0.90;99.90
5344;DHT22;2694;48.950;8.970;2023-01-25T01:46:21;2.00;99.90
5344;DHT22;2694;48.950;8.970;2023-01-25T01:48:52;1.90;99.90
5344;DHT22;2694;48.950;8.970;2023-01-25T01:51:23;1.90;99.90
5344;DHT22;2694;48.950;8.970;2023-01-25T01:53:56;1.90;99.90
5344;DHT22;2694;48.950;8.970;2023-01-25T01:56:28;1.90;99.90
5344;DHT22;2694;48.950;8.970;2023-01-25T01:58:58;1.90;99.90
5344;DHT22;2694;48.950;8.970;2023-01-25T02:01:26;2.00;99.90
5344;DHT22;2694;48.950;8.970;2023-01-25T02:03:53;1.90;99.90
5344;DHT22;2694;48.950;8.970;2023-01-25T02:06:27;2.00;99.90
5344;DHT22;2694;48.950;8.970;2023-01-25T02:08:56;2.00;99.90
5344;DHT22;2694;48.950;8.970;2023-01-25T02:11:24;2.00;99.90
5344;DHT22;2694;48.950;8.970;2023-01-25T02:13:52;1.90;99.90
5344;DHT22;2694;48.950;8.970;2023-01-25T02:16:23;1.90;99.90
5344;DHT22;2694;48.950;8.970;2023-01-25T02:18:53;1.90;99.90
5344;DHT22;2694;48.950;8.970;2023-01-25T02:21:22;1.90;99.90
5344;DHT22;2694;48.950;8.970;2023-01-25T02:23:53;1.90;99.90
5344;DHT22;2694;48.950;8.970;2023-01-25T02:26:23;1.90;99.90
5344;DHT22;2694;48.950;8.970;2023-01-25T02:28:54;1.80;99.90
5344;DHT22;2694;48.950;8.970;2023-01-25T02:31:22;1.70;99.90
5344;DHT22;2694;48.950;8.970;2023-01-25T02:33:49;1.80;99.90
5344;DHT22;2694;48.950;8.970;2023-01-25T02:36:19;1.80;99.90
5344;DHT22;2694;48.950;8.970;2023-01-25T02:38:52;1.80;99.90
5344;DHT22;2694;48.950;8.970;2023-01-25T02:41:25;1.90;99.90
5344;DHT22;2694;48.950;8.970;2023-01-25T02:43:53;1.90;99.90
5344;DHT22;2694;48.950;8.970;2023-01-25T02:46:23;1.70;99.90
5344;DHT22;2694;48.950;8.970;2023-01-25T02:48:52;1.80;99.90
5344;DHT22;2694;48.950;8.970;2023-01-25T02:51:20;1.80;99.90
5344;DHT22;2694;48.950;8.970;2023-01-25T02:53:47;1.80;99.90
5344;DHT22;2694;48.950;8.970;2023-01-25T02:56:14;1.80;99.90
5344;DHT22;2694;48.950;8.970;2023-01-25T02:58:43;1.80;99.90
5344;DHT22;2694;48.950;8.970;2023-01-25T03:01:11;1.70;99.90
5344;DHT22;2694;48.950;8.970;2023-01-25T03:03:38;1.70;99.90
5344;DHT22;2694;48.950;8.970;2023-01-25T03:06:06;1.70;99.90
5344;DHT22;2694;48.950;8.970;2023-01-25T03:08:32;1.70;99.90
5344;DHT22;2694;48.950;8.970;2023-01-25T03:11:01;1.70;99.90
5344;DHT22;2694;48.950;8.970;2023-01-25T03:13:29;1.70;99.90
5344;DHT22;2694;48.950;8.970;2023-01-25T03:16:00;1.70;99.90
5344;DHT22;2694;48.950;8.970;2023-01-25T03:18:27;1.70;99.90
5344;DHT22;2694;48.950;8.970;2023-01-25T03:20:54;1.70;99.90
5344;DHT22;2694;48.950;8.970;2023-01-25T03:23:21;1.60;99.90
5344;DHT22;2694;48.950;8.970;2023-01-25T03:25:48;1.60;99.90
5344;DHT22;2694;48.950;8.970;2023-01-25T03:28:15;1.60;99.90
5344;DHT22;2694;48.950;8.970;2023-01-25T03:30:42;1.70;99.90
5344;DHT22;2694;48.950;8.970;2023-01-25T03:33:10;1.80;99.90
5344;DHT22;2694;48.950;8.970;2023-01-25T03:35:37;1.70;99.90
5344;DHT22;2694;48.950;8.970;2023-01-25T03:38:04;1.70;99.90
5344;DHT22;2694;48.950;8.970;2023-01-25T03:40:31;1.70;99.90
5344;DHT22;2694;48.950;8.970;2023-01-25T03:42:58;1.80;99.90
5344;DHT22;2694;48.950;8.970;2023-01-25T03:45:25;1.80;99.90
5344;DHT22;2694;48.950;8.970;2023-01-25T03:47:52;1.80;99.90
5344;DHT22;2694;48.950;8.970;2023-01-25T03:50:20;1.80;99.90
5344;DHT22;2694;48.950;8.970;2023-01-25T03:52:47;1.80;99.90
5344;DHT22;2694;48.950;8.970;2023-01-25T03:55:21;1.80;99.90
5344;DHT22;2694;48.950;8.970;2023-01-25T03:57:48;1.80;99.90
5344;DHT22;2694;48.950;8.970;2023-01-25T04:00:16;1.80;99.90
5344;DHT22;2694;48.950;8.970;2023-01-25T04:02:44;1.80;99.90
5344;DHT22;2694;48.950;8.970;2023-01-25T04:05:12;1.80;99.90
5344;DHT22;2694;48.950;8.970;2023-01-25T04:07:40;1.90;99.90
5344;DHT22;2694;48.950;8.970;2023-01-25T04:10:08;1.80;99.90
5344;DHT22;2694;48.950;8.970;2023-01-25T04:12:35;1.90;99.90
5344;DHT22;2694;48.950;8.970;2023-01-25T04:15:03;1.80;99.90
5344;DHT22;2694;48.950;8.970;2023-01-25T04:17:30;1.80;99.90
5344;DHT22;2694;48.950;8.970;2023-01-25T04:19:57;1.80;99.90
5344;DHT22;2694;48.950;8.970;2023-01-25T04:22:24;1.80;99.90
5344;DHT22;2694;48.950;8.970;2023-01-25T04:24:52;1.80;99.90
5344;DHT22;2694;48.950;8.970;2023-01-25T04:27:19;1.90;99.90
5344;DHT22;2694;48.950;8.970;2023-01-25T04:29:46;1.80;99.90
5344;DHT22;2694;48.950;8.970;2023-01-25T04:32:13;1.80;99.90
5344;DHT22;2694;48.950;8.970;2023-01-25T04:34:40;1.80;99.90
5344;DHT22;2694;48.950;8.970;2023-01-25T04:37:07;1.80;99.90
5344;DHT22;2694;48.950;8.970;2023-01-25T04:39:34;1.80;99.90
5344;DHT22;2694;48.950;8.970;2023-01-25T04:42:02;1.80;99.90
5344;DHT22;2694;48.950;8.970;2023-01-25T04:44:29;1.80;99.90
5344;DHT22;2694;48.950;8.970;2023-01-25T04:46:57;1.90;99.90
5344;DHT22;2694;48.950;8.970;2023-01-25T04:49:23;1.90;99.90
5344;DHT22;2694;48.950;8.970;2023-01-25T04:51:50;1.90;99.90
5344;DHT22;2694;48.950;8.970;2023-01-25T04:54:17;1.90;99.90
5344;DHT22;2694;48.950;8.970;2023-01-25T04:56:44;1.80;99.90
5344;DHT22;2694;48.950;8.970;2023-01-25T04:59:12;1.90;99.90
5344;DHT22;2694;48.950;8.970;2023-01-25T05:01:40;1.90;99.90
5344;DHT22;2694;48.950;8.970;2023-01-25T05:04:07;1.80;99.90
5344;DHT22;2694;48.950;8.970;2023-01-25T05:06:33;1.90;99.90
5344;DHT22;2694;48.950;8.970;2023-01-25T05:09:00;2.00;99.90
5344;DHT22;2694;48.950;8.970;2023-01-25T05:11:27;1.90;99.90
5344;DHT22;2694;48.950;8.970;2023-01-25T05:13:54;1.90;99.90
5344;DHT22;2694;48.950;8.970;2023-01-25T05:16:22;1.90;99.90
5344;DHT22;2694;48.950;8.970;2023-01-25T05:18:49;1.80;99.90
5344;DHT22;2694;48.950;8.970;2023-01-25T05:21:16;1.90;99.90
5344;DHT22;2694;48.950;8.970;2023-01-25T05:23:57;1.90;99.90
5344;DHT22;2694;48.950;8.970;2023-01-25T05:26:24;1.90;99.90
5344;DHT22;2694;48.950;8.970;2023-01-25T05:29:08;2.00;99.90
5344;DHT22;2694;48.950;8.970;2023-01-25T05:31:37;1.90;99.90
5344;DHT22;2694;48.950;8.970;2023-01-25T05:34:03;1.80;99.90
5344;DHT22;2694;48.950;8.970;2023-01-25T05:36:30;1.80;99.90
5344;DHT22;2694;48.950;8.970;2023-01-25T05:38:57;1.70;99.90
5344;DHT22;2694;48.950;8.970;2023-01-25T05:41:24;1.70;99.90
5344;DHT22;2694;48.950;8.970;2023-01-25T05:43:51;1.70;99.90
5344;DHT22;2694;48.950;8.970;2023-01-25T05:46:18;1.70;99.90
5344;DHT22;2694;48.950;8.970;2023-01-25T05:48:47;1.70;99.90
5344;DHT22;2694;48.950;8.970;2023-01-25T05:51:14;1.60;99.90
5344;DHT22;2694;48.950;8.970;2023-01-25T05:53:41;1.70;99.90
5344;DHT22;2694;48.950;8.970;2023-01-25T05:56:08;1.70;99.90
5344;DHT22;2694;48.950;8.970;2023-01-25T05:58:36;1.70;99.90
5344;DHT22;2694;48.950;8.970;2023-01-25T06:01:04;1.70;99.90
5344;DHT22;2694;48.950;8.970;2023-01-25T06:03:31;1.70;99.90
5344;DHT22;2694;48.950;8.970;2023-01-25T06:06:00;1.80;99.90
5344;DHT22;2694;48.950;8.970;2023-01-25T06:08:28;1.80;99.90
5344;DHT22;2694;48.950;8.970;2023-01-25T06:10:55;1.80;99.90
5344;DHT22;2694;48.950;8.970;2023-01-25T06:13:22;1.70;99.90
5344;DHT22;2694;48.950;8.970;2023-01-25T06:15:52;1.70;99.90
5344;DHT22;2694;48.950;8.970;2023-01-25T06:18:19;1.80;99.90
5344;DHT22;2694;48.950;8.970;2023-01-25T06:20:47;1.70;99.90
5344;DHT22;2694;48.950;8.970;2023-01-25T06:23:15;1.70;99.90
5344;DHT22;2694;48.950;8.970;2023-01-25T06:25:42;1.70;99.90
5344;DHT22;2694;48.950;8.970;2023-01-25T06:28:09;1.70;99.90
5344;DHT22;2694;48.950;8.970;2023-01-25T06:30:36;1.80;99.90
5344;DHT22;2694;48.950;8.970;2023-01-25T06:33:03;1.70;99.90
5344;DHT22;2694;48.950;8.970;2023-01-25T06:35:30;1.70;99.90
5344;DHT22;2694;48.950;8.970;2023-01-25T06:37:58;1.60;99.90
5344;DHT22;2694;48.950;8.970;2023-01-25T06:40:27;1.60;99.90
5344;DHT22;2694;48.950;8.970;2023-01-25T06:42:54;1.70;99.90
5344;DHT22;2694;48.950;8.970;2023-01-25T06:45:21;1.80;99.90
5344;DHT22;2694;48.950;8.970;2023-01-25T06:47:48;1.90;99.90
5344;DHT22;2694;48.950;8.970;2023-01-25T06:50:16;1.70;99.90
5344;DHT22;2694;48.950;8.970;2023-01-25T06:52:50;1.70;99.90
5344;DHT22;2694;48.950;8.970;2023-01-25T06:55:17;1.60;99.90
5344;DHT22;2694;48.950;8.970;2023-01-25T06:57:46;1.60;99.90
5344;DHT22;2694;48.950;8.970;2023-01-25T07:00:13;1.60;99.90
5344;DHT22;2694;48.950;8.970;2023-01-25T07:02:40;1.60;99.90
5344;DHT22;2694;48.950;8.970;2023-01-25T07:05:08;1.70;99.90
5344;DHT22;2694;48.950;8.970;2023-01-25T07:07:35;1.60;99.90
5344;DHT22;2694;48.950;8.970;2023-01-25T07:10:02;1.60;99.90
5344;DHT22;2694;48.950;8.970;2023-01-25T07:12:29;1.60;99.90
5344;DHT22;2694;48.950;8.970;2023-01-25T07:14:57;1.60;99.90
5344;DHT22;2694;48.950;8.970;2023-01-25T07:17:24;1.60;99.90
5344;DHT22;2694;48.950;8.970;2023-01-25T07:19:51;1.60;99.90
5344;DHT22;2694;48.950;8.970;2023-01-25T07:22:18;1.60;99.90
5344;DHT22;2694;48.950;8.970;2023-01-25T07:24:45;1.60;99.90
5344;DHT22;2694;48.950;8.970;2023-01-25T07:27:15;1.60;99.90
5344;DHT22;2694;48.950;8.970;2023-01-25T07:29:42;1.60;99.90
5344;DHT22;2694;48.950;8.970;2023-01-25T07:32:12;1.70;99.90
5344;DHT22;2694;48.950;8.970;2023-01-25T07:34:39;1.80;99.90
5344;DHT22;2694;48.950;8.970;2023-01-25T07:37:06;1.60;99.90
5344;DHT22;2694;48.950;8.970;2023-01-25T07:39:34;1.60;99.90
5344;DHT22;2694;48.950;8.970;2023-01-25T07:42:02;1.70;99.90
5344;DHT22;2694;48.950;8.970;2023-01-25T07:44:28;1.70;99.90
5344;DHT22;2694;48.950;8.970;2023-01-25T07:46:55;1.60;99.90
5344;DHT22;2694;48.950;8.970;2023-01-25T07:49:24;1.70;99.90
5344;DHT22;2694;48.950;8.970;2023-01-25T07:51:51;1.80;99.90
5344;DHT22;2694;48.950;8.970;2023-01-25T07:54:18;1.80;99.90
5344;DHT22;2694;48.950;8.970;2023-01-25T07:56:44;1.90;99.90
5344;DHT22;2694;48.950;8.970;2023-01-25T07:59:11;1.90;99.90
5344;DHT22;2694;48.950;8.970;2023-01-25T08:01:39;1.90;99.90
5344;DHT22;2694;48.950;8.970;2023-01-25T08:04:07;1.90;99.90
5344;DHT22;2694;48.950;8.970;2023-01-25T08:06:37;1.90;99.90
5344;DHT22;2694;48.950;8.970;2023-01-25T08:09:07;1.90;99.90
5344;DHT22;2694;48.950;8.970;2023-01-25T08:11:34;1.90;99.90
5344;DHT22;2694;48.950;8.970;2023-01-25T08:14:01;1.90;99.90
5344;DHT22;2694;48.950;8.970;2023-01-25T08:16:29;1.90;99.90
5344;DHT22;2694;48.950;8.970;2023-01-25T08:18:58;2.00;99.90
5344;DHT22;2694;48.950;8.970;2023-01-25T08:21:26;2.10;99.90
5344;DHT22;2694;48.950;8.970;2023-01-25T08:23:56;2.20;99.90
5344;DHT22;2694;48.950;8.970;2023-01-25T08:26:24;2.30;99.90
5344;DHT22;2694;48.950;8.970;2023-01-25T08:28:51;2.30;99.90
5344;DHT22;2694;48.950;8.970;2023-01-25T08:31:20;2.30;99.90
5344;DHT22;2694;48.950;8.970;2023-01-25T08:33:48;2.30;99.90
5344;DHT22;2694;48.950;8.970;2023-01-25T08:36:16;2.20;99.90
5344;DHT22;2694;48.950;8.970;2023-01-25T08:38:44;2.10;99.90
5344;DHT22;2694;48.950;8.970;2023-01-25T08:41:14;2.10;99.90
5344;DHT22;2694;48.950;8.970;2023-01-25T08:43:41;2.10;99.90
5344;DHT22;2694;48.950;8.970;2023-01-25T08:46:09;2.10;99.90
5344;DHT22;2694;48.950;8.970;2023-01-25T08:48:37;2.10;99.90
5344;DHT22;2694;48.950;8.970;2023-01-25T08:51:06;2.10;99.90
5344;DHT22;2694;48.950;8.970;2023-01-25T08:53:33;2.20;99.90
5344;DHT22;2694;48.950;8.970;2023-01-25T08:56:04;2.20;99.90
5344;DHT22;2694;48.950;8.970;2023-01-25T08:58:33;2.10;99.90
5344;DHT22;2694;48.950;8.970;2023-01-25T09:01:03;2.10;99.90
5344;DHT22;2694;48.950;8.970;2023-01-25T09:03:30;2.10;99.90
5344;DHT22;2694;48.950;8.970;2023-01-25T09:05:57;2.10;99.90
5344;DHT22;2694;48.950;8.970;2023-01-25T09:08:24;2.10;99.90
5344;DHT22;2694;48.950;8.970;2023-01-25T09:10:51;2.10;99.90
5344;DHT22;2694;48.950;8.970;2023-01-25T09:13:18;2.00;99.90
5344;DHT22;2694;48.950;8.970;2023-01-25T09:15:46;2.20;99.90
5344;DHT22;2694;48.950;8.970;2023-01-25T09:18:13;2.30;99.90
5344;DHT22;2694;48.950;8.970;2023-01-25T09:20:40;2.30;99.90
5344;DHT22;2694;48.950;8.970;2023-01-25T09:23:07;2.40;99.90
5344;DHT22;2694;48.950;8.970;2023-01-25T09:25:34;2.40;99.90
5344;DHT22;2694;48.950;8.970;2023-01-25T09:28:01;2.40;99.90
5344;DHT22;2694;48.950;8.970;2023-01-25T09:30:37;2.40;99.90
5344;DHT22;2694;48.950;8.970;2023-01-25T09:33:05;2.40;99.90
5344;DHT22;2694;48.950;8.970;2023-01-25T09:35:32;2.50;99.90
5344;DHT22;2694;48.950;8.970;2023-01-25T09:38:01;2.50;99.90
5344;DHT22;2694;48.950;8.970;2023-01-25T09:40:38;2.40;99.90
5344;DHT22;2694;48.950;8.970;2023-01-25T09:43:14;2.30;99.90
5344;DHT22;2694;48.950;8.970;2023-01-25T09:45:46;2.30;99.90
5344;DHT22;2694;48.950;8.970;2023-01-25T09:48:20;2.30;99.90
5344;DHT22;2694;48.950;8.970;2023-01-25T09:51:07;2.40;99.90
5344;DHT22;2694;48.950;8.970;2023-01-25T09:53:38;2.30;99.90
5344;DHT22;2694;48.950;8.970;2023-01-25T09:56:11;2.50;99.90
5344;DHT22;2694;48.950;8.970;2023-01-25T09:58:41;2.50;99.90
5344;DHT22;2694;48.950;8.970;2023-01-25T10:01:26;2.50;99.90
5344;DHT22;2694;48.950;8.970;2023-01-25T10:03:58;2.40;99.90
5344;DHT22;2694;48.950;8.970;2023-01-25T10:06:36;2.50;99.90
5344;DHT22;2694;48.950;8.970;2023-01-25T10:09:11;2.40;99.90
5344;DHT22;2694;48.950;8.970;2023-01-25T10:11:39;2.40;99.90
5344;DHT22;2694;48.950;8.970;2023-01-25T10:14:12;2.40;99.90
5344;DHT22;2694;48.950;8.970;2023-01-25T10:16:50;2.30;99.90
5344;DHT22;2694;48.950;8.970;2023-01-25T10:19:32;2.20;99.90
5344;DHT22;2694;48.950;8.970;2023-01-25T10:22:09;2.20;99.90
5344;DHT22;2694;48.950;8.970;2023-01-25T10:25:11;2.20;99.90
5344;DHT22;2694;48.950;8.970;2023-01-25T10:27:43;2.20;99.90
5344;DHT22;2694;48.950;8.970;2023-01-25T10:30:21;2.40;99.90
5344;DHT22;2694;48.950;8.970;2023-01-25T10:32:49;2.40;99.90
5344;DHT22;2694;48.950;8.970;2023-01-25T10:35:22;2.40;99.90
5344;DHT22;2694;48.950;8.970;2023-01-25T10:37:52;2.40;99.90
5344;DHT22;2694;48.950;8.970;2023-01-25T10:40:22;2.40;99.90
5344;DHT22;2694;48.950;8.970;2023-01-25T10:42:54;2.40;99.90
5344;DHT22;2694;48.950;8.970;2023-01-25T10:45:21;2.40;99.90
5344;DHT22;2694;48.950;8.970;2023-01-25T10:47:51;2.40;99.90
5344;DHT22;2694;48.950;8.970;2023-01-25T10:50:45;2.30;99.90
5344;DHT22;2694;48.950;8.970;2023-01-25T10:53:34;2.30;99.90
5344;DHT22;2694;48.950;8.970;2023-01-25T10:56:20;2.30;99.90
5344;DHT22;2694;48.950;8.970;2023-01-25T10:58:49;2.30;99.90
5344;DHT22;2694;48.950;8.970;2023-01-25T11:01:30;2.40;99.90
5344;DHT22;2694;48.950;8.970;2023-01-25T11:03:58;2.40;99.90
5344;DHT22;2694;48.950;8.970;2023-01-25T11:06:35;2.30;99.90
5344;DHT22;2694;48.950;8.970;2023-01-25T11:09:29;2.40;99.90
5344;DHT22;2694;48.950;8.970;2023-01-25T11:11:57;2.30;99.90
5344;DHT22;2694;48.950;8.970;2023-01-25T11:14:26;2.40;99.90
5344;DHT22;2694;48.950;8.970;2023-01-25T11:16:54;2.30;99.90
5344;DHT22;2694;48.950;8.970;2023-01-25T11:19:27;2.30;99.90
5344;DHT22;2694;48.950;8.970;2023-01-25T11:21:59;2.20;99.90
5344;DHT22;2694;48.950;8.970;2023-01-25T11:24:27;2.20;99.90
5344;DHT22;2694;48.950;8.970;2023-01-25T11:27:17;2.30;99.90
5344;DHT22;2694;48.950;8.970;2023-01-25T11:29:44;2.10;99.90
5344;DHT22;2694;48.950;8.970;2023-01-25T11:32:17;2.10;99.90
5344;DHT22;2694;48.950;8.970;2023-01-25T11:34:48;2.10;99.90
5344;DHT22;2694;48.950;8.970;2023-01-25T11:37:30;2.20;99.90
5344;DHT22;2694;48.950;8.970;2023-01-25T11:40:10;2.30;99.90
5344;DHT22;2694;48.950;8.970;2023-01-25T11:42:45;2.40;99.90
5344;DHT22;2694;48.950;8.970;2023-01-25T11:45:48;2.40;99.90
5344;DHT22;2694;48.950;8.970;2023-01-25T11:48:41;2.40;99.90
5344;DHT22;2694;48.950;8.970;2023-01-25T11:51:16;2.20;99.90
5344;DHT22;2694;48.950;8.970;2023-01-25T11:54:02;2.10;99.90
5344;DHT22;2694;48.950;8.970;2023-01-25T11:56:43;2.10;99.90
5344;DHT22;2694;48.950;8.970;2023-01-25T11:59:25;2.10;99.90
5344;DHT22;2694;48.950;8.970;2023-01-25T12:05:01;2.10;99.90
5344;DHT22;2694;48.950;8.970;2023-01-25T12:07:42;2.10;99.90
5344;DHT22;2694;48.950;8.970;2023-01-25T12:10:21;2.00;99.90
5344;DHT22;2694;48.950;8.970;2023-01-25T12:12:55;2.00;99.90
5344;DHT22;2694;48.950;8.970;2023-01-25T12:15:37;2.00;99.90
5344;DHT22;2694;48.950;8.970;2023-01-25T12:18:27;2.00;99.90
5344;DHT22;2694;48.950;8.970;2023-01-25T12:21:09;1.90;99.90
5344;DHT22;2694;48.950;8.970;2023-01-25T12:23:54;2.00;99.90
5344;DHT22;2694;48.950;8.970;2023-01-25T12:26:27;2.10;99.90
5344;DHT22;2694;48.950;8.970;2023-01-25T12:29:01;2.00;99.90
5344;DHT22;2694;48.950;8.970;2023-01-25T12:31:35;2.00;99.90
5344;DHT22;2694;48.950;8.970;2023-01-25T12:34:09;2.00;99.90
5344;DHT22;2694;48.950;8.970;2023-01-25T12:36:38;1.90;99.90
5344;DHT22;2694;48.950;8.970;2023-01-25T12:39:12;1.90;99.90
5344;DHT22;2694;48.950;8.970;2023-01-25T12:41:44;1.90;99.90
5344;DHT22;2694;48.950;8.970;2023-01-25T12:44:18;2.00;99.90
5344;DHT22;2694;48.950;8.970;2023-01-25T12:46:52;1.90;99.90
5344;DHT22;2694;48.950;8.970;2023-01-25T12:49:26;2.00;99.90
5344;DHT22;2694;48.950;8.970;2023-01-25T12:51:55;2.00;99.90
5344;DHT22;2694;48.950;8.970;2023-01-25T12:54:29;2.10;99.90
5344;DHT22;2694;48.950;8.970;2023-01-25T12:57:05;2.10;99.90
5344;DHT22;2694;48.950;8.970;2023-01-25T12:59:42;2.10;99.90
5344;DHT22;2694;48.950;8.970;2023-01-25T13:02:23;2.10;99.90
5344;DHT22;2694;48.950;8.970;2023-01-25T13:04:58;2.10;99.90
5344;DHT22;2694;48.950;8.970;2023-01-25T13:07:33;2.00;99.90
5344;DHT22;2694;48.950;8.970;2023-01-25T13:10:07;1.90;99.90
5344;DHT22;2694;48.950;8.970;2023-01-25T13:12:53;2.00;99.90
5344;DHT22;2694;48.950;8.970;2023-01-25T13:15:37;2.00;99.90
5344;DHT22;2694;48.950;8.970;2023-01-25T13:18:36;2.00;99.90
5344;DHT22;2694;48.950;8.970;2023-01-25T13:21:08;2.00;99.90
5344;DHT22;2694;48.950;8.970;2023-01-25T13:23:37;2.10;99.90
5344;DHT22;2694;48.950;8.970;2023-01-25T13:26:46;2.20;99.90
5344;DHT22;2694;48.950;8.970;2023-01-25T13:35:38;2.10;99.90
5344;DHT22;2694;48.950;8.970;2023-01-25T13:38:32;2.10;99.90
5344;DHT22;2694;48.950;8.970;2023-01-25T13:41:02;2.10;99.90
5344;DHT22;2694;48.950;8.970;2023-01-25T13:43:29;2.10;99.90
5344;DHT22;2694;48.950;8.970;2023-01-25T13:45:56;2.10;99.90
5344;DHT22;2694;48.950;8.970;2023-01-25T13:48:25;2.10;99.90
5344;DHT22;2694;48.950;8.970;2023-01-25T13:50:57;2.00;99.90
5344;DHT22;2694;48.950;8.970;2023-01-25T13:53:26;2.00;99.90
5344;DHT22;2694;48.950;8.970;2023-01-25T13:55:56;2.00;99.90
5344;DHT22;2694;48.950;8.970;2023-01-25T13:58:29;1.90;99.90
5344;DHT22;2694;48.950;8.970;2023-01-25T14:00:57;1.90;99.90
5344;DHT22;2694;48.950;8.970;2023-01-25T14:03:28;2.10;99.90
5344;DHT22;2694;48.950;8.970;2023-01-25T14:05:57;2.30;99.90
5344;DHT22;2694;48.950;8.970;2023-01-25T14:08:27;2.30;99.90
5344;DHT22;2694;48.950;8.970;2023-01-25T14:10:55;2.40;99.90
5344;DHT22;2694;48.950;8.970;2023-01-25T14:13:22;2.40;99.90
5344;DHT22;2694;48.950;8.970;2023-01-25T14:15:54;2.30;99.90
5344;DHT22;2694;48.950;8.970;2023-01-25T14:18:27;2.30;99.90
5344;DHT22;2694;48.950;8.970;2023-01-25T14:21:11;2.20;99.90
5344;DHT22;2694;48.950;8.970;2023-01-25T14:23:38;2.10;99.90
5344;DHT22;2694;48.950;8.970;2023-01-25T14:26:19;2.10;99.90
5344;DHT22;2694;48.950;8.970;2023-01-25T14:28:49;2.10;99.90
5344;DHT22;2694;48.950;8.970;2023-01-25T14:31:20;2.10;99.90
5344;DHT22;2694;48.950;8.970;2023-01-25T14:33:48;2.10;99.90
5344;DHT22;2694;48.950;8.970;2023-01-25T14:36:20;2.00;99.90
5344;DHT22;2694;48.950;8.970;2023-01-25T14:38:48;2.00;99.90
5344;DHT22;2694;48.950;8.970;2023-01-25T14:41:18;2.10;99.90
5344;DHT22;2694;48.950;8.970;2023-01-25T14:43:47;2.00;99.90
5344;DHT22;2694;48.950;8.970;2023-01-25T14:46:26;2.00;99.90
5344;DHT22;2694;48.950;8.970;2023-01-25T14:49:07;2.00;99.90
5344;DHT22;2694;48.950;8.970;2023-01-25T14:51:39;2.10;99.90
5344;DHT22;2694;48.950;8.970;2023-01-25T14:54:14;2.00;99.90
5344;DHT22;2694;48.950;8.970;2023-01-25T14:56:42;2.00;99.90
5344;DHT22;2694;48.950;8.970;2023-01-25T14:59:28;1.90;99.90
5344;DHT22;2694;48.950;8.970;2023-01-25T15:01:59;2.00;99.90
5344;DHT22;2694;48.950;8.970;2023-01-25T15:04:26;2.00;99.90
5344;DHT22;2694;48.950;8.970;2023-01-25T15:06:55;2.10;99.90
5344;DHT22;2694;48.950;8.970;2023-01-25T15:09:30;2.10;99.90
5344;DHT22;2694;48.950;8.970;2023-01-25T15:12:00;2.00;99.90
5344;DHT22;2694;48.950;8.970;2023-01-25T15:14:29;1.70;99.90
5344;DHT22;2694;48.950;8.970;2023-01-25T15:16:56;1.60;99.90
5344;DHT22;2694;48.950;8.970;2023-01-25T15:19:26;1.50;99.90
5344;DHT22;2694;48.950;8.970;2023-01-25T15:21:56;1.50;99.90
5344;DHT22;2694;48.950;8.970;2023-01-25T15:24:23;1.70;99.90
5344;DHT22;2694;48.950;8.970;2023-01-25T15:26:52;1.80;99.90
5344;DHT22;2694;48.950;8.970;2023-01-25T15:29:20;1.80;99.90
5344;DHT22;2694;48.950;8.970;2023-01-25T15:31:49;1.80;99.90
5344;DHT22;2694;48.950;8.970;2023-01-25T15:34:18;1.70;99.90
5344;DHT22;2694;48.950;8.970;2023-01-25T15:36:45;1.60;99.90
5344;DHT22;2694;48.950;8.970;2023-01-25T15:39:16;1.60;99.90
5344;DHT22;2694;48.950;8.970;2023-01-25T15:41:43;1.70;99.90
5344;DHT22;2694;48.950;8.970;2023-01-25T15:44:10;1.80;99.90
5344;DHT22;2694;48.950;8.970;2023-01-25T15:46:39;1.80;99.90
5344;DHT22;2694;48.950;8.970;2023-01-25T15:49:09;1.90;99.90
5344;DHT22;2694;48.950;8.970;2023-01-25T15:51:39;1.90;99.90
5344;DHT22;2694;48.950;8.970;2023-01-25T15:54:06;2.00;99.90
5344;DHT22;2694;48.950;8.970;2023-01-25T15:56:35;2.00;99.90
5344;DHT22;2694;48.950;8.970;2023-01-25T15:59:06;1.80;99.90
5344;DHT22;2694;48.950;8.970;2023-01-25T16:01:33;1.70;99.90
5344;DHT22;2694;48.950;8.970;2023-01-25T16:04:00;1.80;99.90
5344;DHT22;2694;48.950;8.970;2023-01-25T16:06:36;1.80;99.90
5344;DHT22;2694;48.950;8.970;2023-01-25T16:09:13;1.80;99.90
5344;DHT22;2694;48.950;8.970;2023-01-25T16:11:42;1.80;99.90
5344;DHT22;2694;48.950;8.970;2023-01-25T16:14:09;1.90;99.90
5344;DHT22;2694;48.950;8.970;2023-01-25T16:16:38;1.80;99.90
5344;DHT22;2694;48.950;8.970;2023-01-25T16:19:06;1.70;99.90
5344;DHT22;2694;48.950;8.970;2023-01-25T16:21:32;1.60;99.90
5344;DHT22;2694;48.950;8.970;2023-01-25T16:23:59;1.70;99.90
5344;DHT22;2694;48.950;8.970;2023-01-25T16:26:27;1.70;99.90
5344;DHT22;2694;48.950;8.970;2023-01-25T16:28:56;1.70;99.90
5344;DHT22;2694;48.950;8.970;2023-01-25T16:31:22;1.70;99.90
5344;DHT22;2694;48.950;8.970;2023-01-25T16:33:50;1.70;99.90
5344;DHT22;2694;48.950;8.970;2023-01-25T16:36:19;1.70;99.90
5344;DHT22;2694;48.950;8.970;2023-01-25T16:38:46;1.70;99.90
5344;DHT22;2694;48.950;8.970;2023-01-25T16:41:13;1.70;99.90
5344;DHT22;2694;48.950;8.970;2023-01-25T16:43:41;1.80;99.90
5344;DHT22;2694;48.950;8.970;2023-01-25T16:46:14;1.70;99.90
5344;DHT22;2694;48.950;8.970;2023-01-25T16:48:42;1.80;99.90
5344;DHT22;2694;48.950;8.970;2023-01-25T16:51:15;1.80;99.90